createdAt,value
2022-11-14T00:00:51.484Z,40.03
2022-11-14T00:03:37.099Z,38.43
2022-11-14T00:06:23.066Z,43.03
2022-11-14T00:09:08.803Z,39.77
2022-11-14T00:11:56.111Z,36.43
2022-11-14T00:14:42.581Z,41.67
2022-11-14T00:17:28.408Z,38.43
2022-11-14T00:20:14.426Z,44.47
2022-11-14T00:23:00.110Z,44.33
2022-11-14T00:25:46.309Z,44.87
2022-11-14T00:28:32.690Z,41.87
2022-11-14T00:31:18.827Z,38.20
2022-11-14T00:34:05.143Z,38.77
2022-11-14T00:36:51.488Z,36.67
2022-11-14T00:39:37.589Z,36.83
2022-11-14T00:42:23.554Z,40.30
2022-11-14T00:45:10.045Z,38.27
2022-11-14T00:47:55.645Z,39.03
2022-11-14T00:50:42.154Z,39.27
2022-11-14T00:53:28.184Z,40.87
2022-11-14T00:56:14.175Z,37.87
2022-11-14T00:59:00.177Z,38.90
2022-11-14T01:01:45.776Z,37.67
2022-11-14T01:04:31.825Z,37.77
2022-11-14T01:07:17.576Z,41.50
2022-11-14T01:10:04.499Z,40.93
2022-11-14T01:12:50.062Z,41.30
2022-11-14T01:15:47.348Z,38.93
2022-11-14T01:18:33.412Z,41.73
2022-11-14T01:21:19.391Z,40.97
2022-11-14T01:24:05.827Z,43.20
2022-11-14T01:26:51.806Z,43.53
2022-11-14T01:29:37.559Z,42.10
2022-11-14T01:32:23.510Z,44.63
2022-11-14T01:35:09.448Z,42.93
2022-11-14T01:37:55.316Z,46.00
2022-11-14T01:40:45.569Z,46.53
2022-11-14T01:43:38.843Z,44.13
2022-11-14T01:46:35.325Z,43.50
2022-11-14T01:49:26.331Z,46.77
2022-11-14T01:52:22.561Z,49.23
2022-11-14T01:55:09.958Z,41.50
2022-11-14T01:57:57.122Z,50.00
2022-11-14T02:00:44.431Z,47.87
2022-11-14T02:03:31.456Z,44.47
2022-11-14T02:06:21.282Z,48.83
2022-11-14T02:09:07.886Z,49.57
2022-11-14T02:11:57.037Z,48.93
2022-11-14T02:14:45.415Z,51.80
2022-11-14T02:17:32.394Z,56.80
2022-11-14T02:20:23.711Z,48.50
2022-11-14T02:23:11.431Z,53.63
2022-11-14T02:25:58.195Z,50.40
2022-11-14T02:28:43.991Z,50.17
2022-11-14T02:31:30.091Z,53.73
2022-11-14T02:34:20.144Z,51.03
2022-11-14T02:37:07.302Z,56.70
2022-11-14T02:39:52.989Z,55.57
2022-11-14T02:42:38.785Z,58.20
2022-11-14T02:45:24.915Z,50.90
2022-11-14T02:48:11.003Z,61.40
2022-11-14T02:50:57.130Z,57.07
2022-11-14T02:53:43.117Z,60.20
2022-11-14T02:56:29.042Z,54.37
2022-11-14T02:59:14.990Z,56.07
2022-11-14T03:02:01.375Z,54.73
2022-11-14T03:04:47.145Z,57.23
2022-11-14T03:07:33.274Z,52.70
2022-11-14T03:10:19.082Z,58.90
2022-11-14T03:13:04.929Z,57.40
2022-11-14T03:15:50.942Z,53.43
2022-11-14T03:18:36.996Z,51.50
2022-11-14T03:21:23.446Z,59.47
2022-11-14T03:24:09.288Z,55.03
2022-11-14T03:26:55.291Z,49.87
2022-11-14T03:29:41.587Z,52.40
2022-11-14T03:32:27.157Z,51.43
2022-11-14T03:35:13.415Z,54.90
2022-11-14T03:37:59.463Z,47.70
2022-11-14T03:40:45.784Z,47.17
2022-11-14T03:43:33.834Z,45.77
2022-11-14T03:46:19.903Z,43.17
2022-11-14T03:49:05.852Z,42.30
2022-11-14T03:51:51.798Z,44.30
2022-11-14T03:54:38.272Z,46.67
2022-11-14T03:57:24.118Z,52.80
2022-11-14T04:00:10.655Z,46.10
2022-11-14T04:02:57.338Z,42.23
2022-11-14T04:05:46.411Z,40.87
2022-11-14T04:08:32.937Z,43.57
2022-11-14T04:11:19.747Z,47.87
2022-11-14T04:14:05.533Z,40.63
2022-11-14T04:16:51.249Z,46.17
2022-11-14T04:19:37.427Z,48.03
2022-11-14T04:22:23.243Z,44.97
2022-11-14T04:25:09.914Z,44.63
2022-11-14T04:27:55.456Z,48.50
2022-11-14T04:30:42.283Z,45.47
2022-11-14T04:33:28.170Z,47.37
2022-11-14T04:36:14.217Z,48.57
2022-11-14T04:39:00.836Z,48.60
2022-11-14T04:41:46.814Z,48.37
2022-11-14T04:44:32.721Z,45.67
2022-11-14T04:47:18.771Z,46.03
2022-11-14T04:50:05.235Z,43.20
2022-11-14T04:52:54.178Z,43.60
2022-11-14T04:55:40.151Z,44.87
2022-11-14T04:58:26.832Z,44.30
2022-11-14T05:01:14.480Z,45.17
2022-11-14T05:04:00.448Z,42.67
2022-11-14T05:06:46.563Z,49.57
2022-11-14T05:09:32.127Z,52.10
2022-11-14T05:12:18.347Z,45.77
2022-11-14T05:15:04.543Z,47.23
2022-11-14T05:17:50.211Z,47.20
2022-11-14T05:20:36.133Z,56.73
2022-11-14T05:23:24.031Z,50.83
2022-11-14T05:26:12.763Z,52.77
2022-11-14T05:28:58.542Z,50.30
2022-11-14T05:31:44.294Z,45.73
2022-11-14T05:34:30.226Z,45.17
2022-11-14T05:37:16.109Z,40.93
2022-11-14T05:40:02.587Z,41.70
2022-11-14T05:42:48.521Z,42.00
2022-11-14T05:45:34.834Z,43.60
2022-11-14T05:48:20.570Z,41.30
2022-11-14T05:51:07.643Z,44.10
2022-11-14T05:53:53.817Z,40.27
2022-11-14T05:56:39.478Z,43.70
2022-11-14T05:59:25.330Z,42.47
2022-11-14T06:02:11.077Z,40.50
2022-11-14T06:04:57.260Z,41.83
2022-11-14T06:07:43.354Z,38.73
2022-11-14T06:10:29.918Z,46.90
2022-11-14T06:13:15.668Z,45.77
2022-11-14T06:16:08.064Z,41.37
2022-11-14T06:18:54.658Z,41.20
2022-11-14T06:21:40.569Z,48.80
2022-11-14T06:24:26.417Z,39.77
2022-11-14T06:27:12.380Z,45.47
2022-11-14T06:29:58.441Z,46.70
2022-11-14T06:32:44.446Z,47.20
2022-11-14T06:35:30.646Z,43.03
2022-11-14T06:38:16.614Z,42.63
2022-11-14T06:41:08.353Z,43.70
2022-11-14T06:43:54.824Z,42.93
2022-11-14T06:46:41.116Z,39.90
2022-11-14T06:49:27.774Z,43.00
2022-11-14T06:52:13.647Z,47.97
2022-11-14T06:54:59.544Z,46.67
2022-11-14T06:57:45.843Z,44.50
2022-11-14T07:00:31.827Z,43.83
2022-11-14T07:03:17.831Z,42.57
2022-11-14T07:06:05.265Z,41.40
2022-11-14T07:08:52.823Z,45.50
2022-11-14T07:11:38.569Z,42.20
2022-11-14T07:14:24.244Z,42.93
2022-11-14T07:17:09.972Z,41.33
2022-11-14T07:19:55.874Z,42.53
2022-11-14T07:22:41.699Z,42.77
2022-11-14T07:25:27.542Z,57.23
2022-11-14T07:28:13.483Z,41.63
2022-11-14T07:30:59.590Z,42.40
2022-11-14T07:33:46.184Z,39.47
2022-11-14T07:36:31.798Z,41.20
2022-11-14T07:39:17.746Z,44.30
2022-11-14T07:42:03.963Z,47.50
2022-11-14T07:44:49.986Z,55.53
2022-11-14T07:47:36.213Z,52.13
2022-11-14T07:50:23.763Z,50.33
2022-11-14T07:53:10.349Z,41.50
2022-11-14T07:55:57.356Z,55.13
2022-11-14T07:58:43.393Z,48.80
2022-11-14T08:01:29.175Z,34.23
2022-11-14T08:04:15.050Z,35.43
2022-11-14T08:07:00.922Z,38.23
2022-11-14T08:09:46.750Z,41.17
2022-11-14T08:12:32.822Z,32.97
2022-11-14T08:15:18.790Z,31.47
2022-11-14T08:18:05.291Z,34.40
2022-11-14T08:20:51.613Z,33.73
2022-11-14T08:23:37.945Z,30.03
2022-11-14T08:26:23.986Z,32.57
2022-11-14T08:29:09.984Z,30.53
2022-11-14T08:31:59.976Z,29.60
2022-11-14T08:34:46.319Z,27.93
2022-11-14T08:37:32.223Z,27.47
2022-11-14T08:40:18.403Z,28.33
2022-11-14T08:43:04.251Z,28.57
2022-11-14T08:45:50.045Z,29.33
2022-11-14T08:48:36.009Z,26.73
2022-11-14T08:51:22.223Z,28.43
2022-11-14T08:54:08.321Z,26.17
2022-11-14T08:56:54.203Z,28.10
2022-11-14T08:59:40.227Z,28.07
2022-11-14T09:02:26.185Z,27.67
2022-11-14T09:05:12.010Z,26.93
2022-11-14T09:07:58.972Z,26.90
2022-11-14T09:10:45.452Z,29.17
2022-11-14T09:13:33.485Z,28.27
2022-11-14T09:16:19.022Z,27.80
2022-11-14T09:19:04.884Z,27.37
2022-11-14T09:21:51.039Z,26.63
2022-11-14T09:24:37.061Z,25.77
2022-11-14T09:27:22.789Z,27.30
2022-11-14T09:30:11.201Z,26.73
2022-11-14T09:33:02.153Z,27.30
2022-11-14T09:35:57.248Z,27.13
2022-11-14T09:38:44.388Z,26.53
2022-11-14T09:41:36.414Z,27.27
2022-11-14T09:44:40.591Z,24.77
2022-11-14T09:47:48.066Z,26.63
2022-11-14T09:50:40.250Z,25.23
2022-11-14T09:53:39.930Z,25.90
2022-11-14T09:56:26.826Z,25.63
2022-11-14T09:59:14.118Z,24.73
2022-11-14T10:02:37.549Z,24.60
2022-11-14T10:05:31.592Z,24.63
2022-11-14T10:08:41.974Z,25.10
2022-11-14T10:11:36.614Z,26.07
2022-11-14T10:14:51.493Z,25.20
2022-11-14T10:17:46.416Z,23.90
2022-11-14T10:20:52.963Z,27.73
2022-11-14T10:24:12.924Z,25.27
2022-11-14T10:27:03.353Z,24.73
2022-11-14T10:30:01.512Z,27.70
2022-11-14T10:32:52.886Z,29.47
2022-11-14T10:35:47.606Z,27.60
2022-11-14T10:38:52.351Z,34.53
2022-11-14T10:41:56.762Z,28.47
2022-11-14T10:45:01.092Z,26.07
2022-11-14T10:47:51.974Z,28.30
2022-11-14T10:50:51.690Z,26.63
2022-11-14T10:54:04.206Z,27.37
2022-11-14T10:56:52.205Z,27.30
2022-11-14T10:59:38.453Z,27.50
2022-11-14T11:02:24.035Z,24.83
2022-11-14T11:05:18.431Z,24.93
2022-11-14T11:08:43.342Z,25.87
2022-11-14T11:11:30.904Z,26.43
2022-11-14T11:14:18.944Z,25.03
2022-11-14T11:17:29.554Z,22.73
2022-11-14T11:20:31.690Z,21.93
2022-11-14T11:23:27.295Z,21.53
2022-11-14T11:26:17.661Z,22.00
2022-11-14T11:29:09.613Z,22.77
2022-11-14T11:31:59.691Z,20.67
2022-11-14T11:34:45.728Z,21.43
2022-11-14T11:37:36.136Z,21.43
2022-11-14T11:40:27.250Z,20.80
2022-11-14T11:46:48.838Z,19.80
2022-11-14T11:49:47.400Z,20.90
2022-11-14T11:53:11.313Z,22.23
2022-11-14T11:56:04.626Z,21.50
2022-11-14T11:59:26.727Z,21.60
2022-11-14T12:02:27.094Z,22.47
2022-11-14T12:05:36.038Z,21.73
2022-11-14T12:08:38.668Z,23.40
2022-11-14T12:11:27.522Z,22.23
2022-11-14T12:14:28.386Z,22.30
2022-11-14T12:18:00.663Z,22.90
2022-11-14T12:21:04.725Z,22.97
2022-11-14T12:24:25.301Z,21.33
2022-11-14T12:27:37.798Z,21.47
2022-11-14T12:30:25.960Z,21.57
2022-11-14T12:33:23.579Z,22.80
2022-11-14T12:36:12.649Z,24.27
2022-11-14T12:38:59.378Z,22.70
2022-11-14T12:41:45.407Z,23.47
2022-11-14T12:44:32.834Z,24.67
2022-11-14T12:47:27.449Z,23.63
2022-11-14T12:50:38.726Z,24.27
2022-11-14T12:53:36.573Z,24.40
2022-11-14T12:56:31.380Z,26.03
2022-11-14T12:59:48.167Z,30.90
2022-11-14T13:02:55.950Z,28.20
2022-11-14T13:05:46.869Z,24.83
2022-11-14T13:08:54.922Z,25.53
2022-11-14T13:12:02.519Z,27.73
2022-11-14T13:15:14.934Z,24.97
2022-11-14T13:18:32.012Z,25.50
2022-11-14T13:21:46.512Z,26.70
2022-11-14T13:24:58.475Z,27.20
2022-11-14T13:31:05.664Z,29.00
2022-11-14T13:33:59.076Z,28.80
2022-11-14T13:36:45.005Z,28.37
2022-11-14T13:39:56.398Z,28.90
2022-11-14T13:43:00.163Z,29.00
2022-11-14T13:46:01.715Z,30.00
2022-11-14T13:49:17.885Z,31.60
2022-11-14T13:52:04.361Z,30.23
2022-11-14T13:54:50.720Z,30.50
2022-11-14T13:57:52.426Z,32.43
2022-11-14T14:01:01.948Z,33.53
2022-11-14T14:04:31.099Z,32.73
2022-11-14T14:07:25.725Z,33.67
2022-11-14T14:10:26.705Z,32.00
2022-11-14T14:13:40.516Z,33.47
2022-11-14T14:16:51.242Z,33.17
2022-11-14T14:19:37.312Z,32.40
2022-11-14T14:22:33.683Z,36.63
2022-11-14T14:25:45.609Z,36.17
2022-11-14T14:28:56.232Z,35.93
2022-11-14T14:31:42.751Z,35.87
2022-11-14T14:34:31.211Z,35.90
2022-11-14T14:37:23.883Z,37.07
2022-11-14T14:40:24.649Z,39.20
2022-11-14T14:43:28.611Z,38.53
2022-11-14T14:46:14.531Z,42.23
2022-11-14T14:49:03.754Z,40.53
2022-11-14T14:51:52.131Z,40.60
2022-11-14T14:54:41.496Z,39.43
2022-11-14T14:57:28.303Z,42.57
2022-11-14T15:00:28.770Z,45.80
2022-11-14T15:03:14.946Z,38.97
2022-11-14T15:06:04.635Z,42.87
2022-11-14T15:08:50.734Z,43.93
2022-11-14T15:11:40.948Z,42.13
2022-11-14T15:14:31.179Z,42.47
2022-11-14T15:17:17.834Z,44.90
2022-11-14T15:20:04.271Z,42.70
2022-11-14T15:23:10.427Z,39.13
2022-11-14T15:26:15.657Z,42.27
2022-11-14T15:29:22.020Z,45.97
2022-11-14T15:32:19.517Z,43.83
2022-11-14T15:35:26.425Z,46.93
2022-11-14T15:38:42.654Z,49.67
2022-11-14T15:41:24.357Z,45.97
2022-11-14T15:44:34.006Z,48.77
2022-11-14T15:47:36.237Z,45.20
2022-11-14T15:50:25.483Z,72.60
2022-11-14T15:53:25.554Z,62.30
2022-11-14T15:56:13.138Z,64.70
2022-11-14T15:58:59.454Z,66.03
2022-11-14T16:01:50.275Z,73.70
2022-11-14T16:04:43.070Z,69.80
2022-11-14T16:07:33.328Z,64.77
2022-11-14T16:10:24.807Z,59.30
2022-11-14T16:13:11.308Z,58.47
2022-11-14T16:15:57.271Z,59.43
2022-11-14T16:18:42.986Z,59.90
2022-11-14T16:21:29.224Z,67.17
2022-11-14T16:24:23.578Z,63.37
2022-11-14T16:27:12.525Z,63.07
2022-11-14T16:30:00.189Z,62.70
2022-11-14T16:32:47.862Z,65.83
2022-11-14T16:35:34.829Z,79.40
2022-11-14T16:38:21.092Z,69.93
2022-11-14T16:41:12.223Z,66.60
2022-11-14T16:43:58.237Z,67.87
2022-11-14T16:46:47.829Z,66.67
2022-11-14T16:49:35.066Z,64.73
2022-11-14T16:52:21.073Z,67.53
2022-11-14T16:55:10.136Z,67.97
2022-11-14T16:57:56.246Z,71.27
2022-11-14T17:00:48.566Z,66.37
2022-11-14T17:03:34.614Z,71.93
2022-11-14T17:06:20.630Z,65.50
2022-11-14T17:09:06.869Z,66.77
2022-11-14T17:11:52.514Z,65.63
2022-11-14T17:14:40.802Z,69.87
2022-11-14T17:17:26.664Z,64.07
2022-11-14T17:20:12.537Z,61.50
2022-11-14T17:22:58.738Z,61.27
2022-11-14T17:25:48.648Z,62.23
2022-11-14T17:28:35.298Z,60.53
2022-11-14T17:31:21.734Z,60.10
2022-11-14T17:34:10.572Z,63.87
2022-11-14T17:36:56.423Z,65.77
2022-11-14T17:39:42.134Z,120.20
2022-11-14T17:42:28.387Z,101.93
2022-11-14T17:45:15.359Z,67.43
2022-11-14T17:48:02.944Z,69.93
2022-11-14T17:50:48.992Z,104.20
2022-11-14T17:53:34.900Z,90.43
2022-11-14T17:56:24.101Z,74.83
2022-11-14T17:59:09.767Z,70.67
2022-11-14T18:02:00.219Z,85.10
2022-11-14T18:04:47.121Z,89.93
2022-11-14T18:07:33.128Z,80.73
2022-11-14T18:10:19.070Z,75.00
2022-11-14T18:13:05.554Z,62.53
2022-11-14T18:15:51.647Z,78.27
2022-11-14T18:18:37.960Z,127.67
2022-11-14T18:21:25.358Z,118.60
2022-11-14T18:24:13.091Z,93.77
2022-11-14T18:26:59.220Z,90.27
2022-11-14T18:29:45.249Z,73.13
2022-11-14T18:32:31.223Z,74.33
2022-11-14T18:35:17.357Z,60.40
2022-11-14T18:38:03.005Z,65.93
2022-11-14T18:40:52.924Z,63.10
2022-11-14T18:43:42.963Z,122.87
2022-11-14T18:46:34.389Z,136.87
2022-11-14T18:49:22.847Z,104.17
2022-11-14T18:52:12.861Z,73.70
2022-11-14T18:55:04.847Z,64.97
2022-11-14T18:57:51.064Z,67.17
2022-11-14T19:00:37.004Z,66.73
2022-11-14T19:03:25.451Z,63.27
2022-11-14T19:06:12.994Z,49.20
2022-11-14T19:09:00.795Z,50.27
2022-11-14T19:12:05.271Z,60.57
2022-11-14T19:14:51.724Z,68.00
2022-11-14T19:17:37.391Z,66.60
2022-11-14T19:20:23.454Z,183.63
2022-11-14T19:23:09.236Z,151.47
2022-11-14T19:26:02.187Z,254.83
2022-11-14T19:28:49.106Z,165.83
2022-11-14T19:31:36.502Z,155.73
2022-11-14T19:34:22.134Z,170.60
2022-11-14T19:37:07.983Z,257.00
2022-11-14T19:39:55.507Z,409.27
2022-11-14T19:42:41.192Z,243.77
2022-11-14T19:45:27.150Z,362.27
2022-11-14T19:48:13.980Z,280.23
2022-11-14T19:51:09.658Z,419.03
2022-11-14T19:53:57.287Z,547.00
2022-11-14T19:56:42.840Z,282.40
2022-11-14T19:59:29.286Z,630.37
2022-11-14T20:02:15.170Z,519.03
2022-11-14T20:05:00.871Z,374.83
2022-11-14T20:07:46.949Z,620.50
2022-11-14T20:10:47.376Z,533.10
2022-11-14T20:13:34.999Z,413.97
2022-11-14T20:16:23.383Z,495.33
2022-11-14T20:19:08.950Z,504.13
2022-11-14T20:21:55.535Z,303.57
2022-11-14T20:24:41.640Z,763.53
2022-11-14T20:27:27.522Z,329.23
2022-11-14T20:30:13.577Z,206.53
2022-11-14T20:32:59.462Z,332.33
2022-11-14T20:35:45.703Z,389.20
2022-11-14T20:38:32.324Z,350.33
2022-11-14T20:41:18.943Z,328.27
2022-11-14T20:44:04.776Z,362.37
2022-11-14T20:46:51.050Z,135.33
2022-11-14T20:49:37.407Z,118.60
2022-11-14T20:52:23.745Z,136.17
2022-11-14T20:55:11.891Z,77.57
2022-11-14T20:57:57.722Z,77.67
2022-11-14T21:00:44.024Z,73.60
2022-11-14T21:03:30.457Z,70.13
2022-11-14T21:06:17.002Z,77.73
2022-11-14T21:09:03.031Z,69.33
2022-11-14T21:11:48.997Z,67.27
2022-11-14T21:14:34.891Z,97.93
2022-11-14T21:17:20.743Z,79.97
2022-11-14T21:20:07.267Z,69.23
2022-11-14T21:22:53.350Z,88.23
2022-11-14T21:25:39.164Z,98.33
2022-11-14T21:28:25.142Z,86.53
2022-11-14T21:31:17.324Z,89.13
2022-11-14T21:34:05.770Z,137.63
2022-11-14T21:36:51.616Z,122.07
2022-11-14T21:39:37.350Z,80.40
2022-11-14T21:42:23.322Z,73.63
2022-11-14T21:45:09.932Z,66.40
2022-11-14T21:47:55.879Z,61.33
2022-11-14T21:50:42.043Z,67.17
2022-11-14T21:53:28.799Z,62.13
2022-11-14T21:56:26.620Z,68.10
2022-11-14T21:59:16.820Z,65.33
2022-11-14T22:02:21.121Z,71.00
2022-11-14T22:05:07.703Z,72.10
2022-11-14T22:07:53.502Z,69.83
2022-11-14T22:10:39.409Z,66.80
2022-11-14T22:13:25.676Z,63.20
2022-11-14T22:16:11.756Z,64.90
2022-11-14T22:19:03.541Z,65.93
2022-11-14T22:21:51.146Z,63.63
2022-11-14T22:24:36.734Z,81.83
2022-11-14T22:27:22.616Z,69.93
2022-11-14T22:30:09.311Z,87.87
2022-11-14T22:32:54.998Z,68.27
2022-11-14T22:35:41.349Z,68.50
2022-11-14T22:38:30.082Z,72.30
2022-11-14T22:41:32.178Z,74.47
2022-11-14T22:44:18.873Z,77.00
2022-11-14T22:47:04.684Z,83.23
2022-11-14T22:49:50.757Z,69.87
2022-11-14T22:52:36.634Z,68.93
2022-11-14T22:55:22.406Z,70.77
2022-11-14T22:58:08.244Z,73.27
2022-11-14T23:00:54.255Z,83.17
2022-11-14T23:03:40.506Z,82.27
2022-11-14T23:06:27.806Z,85.77
2022-11-14T23:09:13.332Z,73.10
2022-11-14T23:11:59.172Z,74.17
2022-11-14T23:14:45.092Z,69.93
2022-11-14T23:17:31.946Z,80.87
2022-11-14T23:20:18.441Z,73.47
2022-11-14T23:23:04.988Z,64.80
2022-11-14T23:25:50.809Z,69.37
2022-11-14T23:28:36.978Z,69.43
2022-11-14T23:31:23.851Z,68.10
2022-11-14T23:34:09.773Z,68.60
2022-11-14T23:36:56.519Z,63.00
2022-11-14T23:39:42.139Z,63.10
2022-11-14T23:42:27.973Z,62.23
2022-11-14T23:45:14.261Z,62.90
2022-11-14T23:48:00.076Z,65.10
2022-11-14T23:50:50.510Z,63.80
2022-11-14T23:53:36.686Z,69.53
2022-11-14T23:56:22.650Z,74.00
2022-11-14T23:59:08.586Z,70.30
